September, 1, 2014, 1:29 pm
Plane Spotting In Texas -- Send Me The Scoop On Your Favorite Spots
--------Under Construction And Just For Fun--------
Flight Radar Provided By FlightRadar24.com
Dallas Ft. Worth Airports METAR
KDFW 011753Z 17015G19KT 10SM SCT037 33/22 A2991 RMK AO2 SLP116 T03280222 10328 20256 58003

KDAL 011753Z 19011KT 10SM SCT042 33/22 A2991 RMK AO2 SLP119 T03330217 10333 20256 58006

Houston Airports METAR
KIAH 011809Z 15020G25KT 2SM +TSRA OVC035CB 28/24 A2997 RMK VSBY SE-S 1/2 FRQ LTGIC TS AT AP MOV N

KHOU 011753Z 15012KT 10SM SCT030 SCT060 33/24 A2994 RMK AO2 RAB09E20 SLP144 8/160 P0000 60000 T03280239 10328 20250 58005

Austin Airport METAR
KAUS 011753Z 19010G19KT 10SM SCT048 BKN055 BKN250 34/21 A2992 RMK AO2 SLP119 T03390206 10344 20250 58007

San Antonio Airport METAR
KSAN 011751Z 18008KT 10SM FEW015 23/17 A2986 RMK AO2 SLP111 T02280167 10228 20200 50004 $

EL Paso Airport METAR
KELP 011751Z 00000KT 10SM FEW100 FEW250 33/06 A3003 RMK AO2 SLP082 T03330056 10333 20222 50003

Airport Delays
No Airport Delays
No airport delays are being reported at this time

Spotter Videos
Testing The New Boeing 787-9 Dreamliner Boeing's Early 787s Sit on Runway, Sales Struggling - Bloomberg

Twitter Feed